sensor_id;sensor_type;location;lat;lon;timestamp;P1;durP1;ratioP1;P2;durP2;ratioP2
22778;SDS011;11556;51.194;3.800;2023-05-29T00:02:09;12.88;;;5.68;;
22778;SDS011;11556;51.194;3.800;2023-05-29T00:04:34;11.30;;;5.68;;
22778;SDS011;11556;51.194;3.800;2023-05-29T00:07:00;18.13;;;5.97;;
22778;SDS011;11556;51.194;3.800;2023-05-29T00:09:26;15.20;;;5.68;;
22778;SDS011;11556;51.194;3.800;2023-05-29T00:11:52;17.30;;;6.35;;
22778;SDS011;11556;51.194;3.800;2023-05-29T00:14:18;17.27;;;6.25;;
22778;SDS011;11556;51.194;3.800;2023-05-29T00:16:45;15.77;;;5.10;;
22778;SDS011;11556;51.194;3.800;2023-05-29T00:19:12;15.50;;;5.30;;
22778;SDS011;11556;51.194;3.800;2023-05-29T00:21:39;12.90;;;5.40;;
22778;SDS011;11556;51.194;3.800;2023-05-29T00:24:05;14.02;;;4.05;;
22778;SDS011;11556;51.194;3.800;2023-05-29T00:26:31;17.60;;;4.93;;
22778;SDS011;11556;51.194;3.800;2023-05-29T00:28:56;13.52;;;3.83;;
22778;SDS011;11556;51.194;3.800;2023-05-29T00:31:22;10.73;;;3.72;;
22778;SDS011;11556;51.194;3.800;2023-05-29T00:33:49;13.35;;;4.03;;
22778;SDS011;11556;51.194;3.800;2023-05-29T00:36:15;15.70;;;4.15;;
22778;SDS011;11556;51.194;3.800;2023-05-29T00:38:41;14.65;;;4.15;;
22778;SDS011;11556;51.194;3.800;2023-05-29T00:41:06;17.02;;;3.85;;
22778;SDS011;11556;51.194;3.800;2023-05-29T00:43:32;8.32;;;3.08;;
22778;SDS011;11556;51.194;3.800;2023-05-29T00:45:58;14.90;;;4.00;;
22778;SDS011;11556;51.194;3.800;2023-05-29T00:48:23;11.38;;;3.40;;
22778;SDS011;11556;51.194;3.800;2023-05-29T00:50:50;15.35;;;3.47;;
22778;SDS011;11556;51.194;3.800;2023-05-29T00:53:16;15.18;;;3.38;;
22778;SDS011;11556;51.194;3.800;2023-05-29T00:55:42;14.27;;;2.90;;
22778;SDS011;11556;51.194;3.800;2023-05-29T00:58:08;10.93;;;3.13;;
22778;SDS011;11556;51.194;3.800;2023-05-29T01:00:34;12.70;;;2.90;;
22778;SDS011;11556;51.194;3.800;2023-05-29T01:03:00;10.55;;;2.88;;
22778;SDS011;11556;51.194;3.800;2023-05-29T01:05:29;12.82;;;2.92;;
22778;SDS011;11556;51.194;3.800;2023-05-29T01:07:58;11.68;;;2.80;;
22778;SDS011;11556;51.194;3.800;2023-05-29T01:10:24;15.45;;;3.00;;
22778;SDS011;11556;51.194;3.800;2023-05-29T01:12:54;10.88;;;3.08;;
22778;SDS011;11556;51.194;3.800;2023-05-29T01:21:07;8.40;;;2.58;;
22778;SDS011;11556;51.194;3.800;2023-05-29T01:29:17;13.15;;;2.78;;
22778;SDS011;11556;51.194;3.800;2023-05-29T01:31:46;12.15;;;2.38;;
22778;SDS011;11556;51.194;3.800;2023-05-29T01:34:13;10.60;;;2.58;;
22778;SDS011;11556;51.194;3.800;2023-05-29T01:36:38;11.43;;;2.40;;
22778;SDS011;11556;51.194;3.800;2023-05-29T01:39:04;15.88;;;2.60;;
22778;SDS011;11556;51.194;3.800;2023-05-29T01:41:30;10.10;;;2.70;;
22778;SDS011;11556;51.194;3.800;2023-05-29T01:43:57;14.80;;;2.90;;
22778;SDS011;11556;51.194;3.800;2023-05-29T01:46:24;11.30;;;2.35;;
22778;SDS011;11556;51.194;3.800;2023-05-29T01:48:50;11.00;;;2.38;;
22778;SDS011;11556;51.194;3.800;2023-05-29T01:51:17;12.55;;;2.25;;
22778;SDS011;11556;51.194;3.800;2023-05-29T01:53:43;12.02;;;2.28;;
22778;SDS011;11556;51.194;3.800;2023-05-29T01:56:09;15.35;;;2.63;;
22778;SDS011;11556;51.194;3.800;2023-05-29T01:58:35;9.15;;;2.70;;
22778;SDS011;11556;51.194;3.800;2023-05-29T02:01:03;13.40;;;2.88;;
22778;SDS011;11556;51.194;3.800;2023-05-29T02:03:29;15.73;;;2.63;;
22778;SDS011;11556;51.194;3.800;2023-05-29T02:05:55;9.48;;;2.75;;
22778;SDS011;11556;51.194;3.800;2023-05-29T02:08:24;7.88;;;2.65;;
22778;SDS011;11556;51.194;3.800;2023-05-29T02:10:50;11.70;;;2.38;;
22778;SDS011;11556;51.194;3.800;2023-05-29T02:13:16;15.98;;;3.40;;
22778;SDS011;11556;51.194;3.800;2023-05-29T02:15:42;11.23;;;2.60;;
22778;SDS011;11556;51.194;3.800;2023-05-29T02:18:09;17.55;;;2.65;;
22778;SDS011;11556;51.194;3.800;2023-05-29T02:20:37;15.35;;;2.90;;
22778;SDS011;11556;51.194;3.800;2023-05-29T02:23:03;11.10;;;2.45;;
22778;SDS011;11556;51.194;3.800;2023-05-29T02:25:28;9.07;;;2.58;;
22778;SDS011;11556;51.194;3.800;2023-05-29T02:27:54;8.95;;;2.33;;
22778;SDS011;11556;51.194;3.800;2023-05-29T02:30:19;11.18;;;2.83;;
22778;SDS011;11556;51.194;3.800;2023-05-29T02:32:45;13.95;;;2.50;;
22778;SDS011;11556;51.194;3.800;2023-05-29T02:35:11;13.73;;;3.08;;
22778;SDS011;11556;51.194;3.800;2023-05-29T02:37:40;13.90;;;3.35;;
22778;SDS011;11556;51.194;3.800;2023-05-29T02:40:08;11.50;;;3.80;;
22778;SDS011;11556;51.194;3.800;2023-05-29T02:42:35;10.57;;;2.58;;
22778;SDS011;11556;51.194;3.800;2023-05-29T02:45:00;9.45;;;2.38;;
22778;SDS011;11556;51.194;3.800;2023-05-29T02:47:26;11.25;;;2.55;;
22778;SDS011;11556;51.194;3.800;2023-05-29T02:49:52;10.93;;;2.33;;
22778;SDS011;11556;51.194;3.800;2023-05-29T02:52:17;10.98;;;2.10;;
22778;SDS011;11556;51.194;3.800;2023-05-29T02:54:43;16.48;;;3.28;;
22778;SDS011;11556;51.194;3.800;2023-05-29T02:57:08;9.52;;;2.67;;
22778;SDS011;11556;51.194;3.800;2023-05-29T02:59:34;22.67;;;2.90;;
22778;SDS011;11556;51.194;3.800;2023-05-29T03:02:00;12.25;;;2.28;;
22778;SDS011;11556;51.194;3.800;2023-05-29T03:04:26;17.67;;;2.80;;
22778;SDS011;11556;51.194;3.800;2023-05-29T03:06:52;15.15;;;2.58;;
22778;SDS011;11556;51.194;3.800;2023-05-29T03:09:18;8.65;;;2.00;;
22778;SDS011;11556;51.194;3.800;2023-05-29T03:11:44;11.40;;;2.30;;
22778;SDS011;11556;51.194;3.800;2023-05-29T03:14:12;13.18;;;2.20;;
22778;SDS011;11556;51.194;3.800;2023-05-29T03:16:38;16.67;;;2.65;;
22778;SDS011;11556;51.194;3.800;2023-05-29T03:19:05;13.05;;;2.25;;
22778;SDS011;11556;51.194;3.800;2023-05-29T03:21:32;11.68;;;2.70;;
22778;SDS011;11556;51.194;3.800;2023-05-29T03:23:58;10.25;;;2.83;;
22778;SDS011;11556;51.194;3.800;2023-05-29T03:26:23;13.63;;;2.30;;
22778;SDS011;11556;51.194;3.800;2023-05-29T03:28:50;9.48;;;2.70;;
22778;SDS011;11556;51.194;3.800;2023-05-29T03:31:16;13.15;;;2.97;;
22778;SDS011;11556;51.194;3.800;2023-05-29T03:33:42;13.10;;;2.50;;
22778;SDS011;11556;51.194;3.800;2023-05-29T03:36:07;12.40;;;2.60;;
22778;SDS011;11556;51.194;3.800;2023-05-29T03:38:33;12.02;;;2.60;;
22778;SDS011;11556;51.194;3.800;2023-05-29T03:40:59;17.73;;;2.83;;
22778;SDS011;11556;51.194;3.800;2023-05-29T03:43:24;9.27;;;2.20;;
22778;SDS011;11556;51.194;3.800;2023-05-29T03:45:50;21.05;;;2.50;;
22778;SDS011;11556;51.194;3.800;2023-05-29T03:48:16;11.50;;;2.10;;
22778;SDS011;11556;51.194;3.800;2023-05-29T03:50:41;10.00;;;2.60;;
22778;SDS011;11556;51.194;3.800;2023-05-29T03:53:07;14.65;;;2.83;;
22778;SDS011;11556;51.194;3.800;2023-05-29T03:55:32;8.15;;;2.15;;
22778;SDS011;11556;51.194;3.800;2023-05-29T03:57:58;10.73;;;2.40;;
22778;SDS011;11556;51.194;3.800;2023-05-29T04:00:24;8.98;;;2.45;;
22778;SDS011;11556;51.194;3.800;2023-05-29T04:02:49;13.88;;;2.58;;
22778;SDS011;11556;51.194;3.800;2023-05-29T04:05:16;17.10;;;2.42;;
22778;SDS011;11556;51.194;3.800;2023-05-29T04:07:41;12.27;;;1.85;;
22778;SDS011;11556;51.194;3.800;2023-05-29T04:10:07;15.80;;;2.70;;
22778;SDS011;11556;51.194;3.800;2023-05-29T04:12:33;12.48;;;2.60;;
22778;SDS011;11556;51.194;3.800;2023-05-29T04:14:59;10.20;;;2.35;;
22778;SDS011;11556;51.194;3.800;2023-05-29T04:17:25;10.65;;;1.90;;
22778;SDS011;11556;51.194;3.800;2023-05-29T04:19:51;14.95;;;2.70;;
22778;SDS011;11556;51.194;3.800;2023-05-29T04:22:16;9.07;;;2.03;;
22778;SDS011;11556;51.194;3.800;2023-05-29T04:24:42;15.10;;;2.53;;
22778;SDS011;11556;51.194;3.800;2023-05-29T04:27:08;12.48;;;1.73;;
22778;SDS011;11556;51.194;3.800;2023-05-29T04:29:37;12.65;;;2.20;;
22778;SDS011;11556;51.194;3.800;2023-05-29T04:32:05;16.88;;;2.40;;
22778;SDS011;11556;51.194;3.800;2023-05-29T04:34:33;7.68;;;1.95;;
22778;SDS011;11556;51.194;3.800;2023-05-29T04:36:59;13.45;;;2.25;;
22778;SDS011;11556;51.194;3.800;2023-05-29T04:39:25;12.55;;;1.73;;
22778;SDS011;11556;51.194;3.800;2023-05-29T04:41:51;13.60;;;1.98;;
22778;SDS011;11556;51.194;3.800;2023-05-29T04:44:17;9.05;;;1.77;;
22778;SDS011;11556;51.194;3.800;2023-05-29T04:46:43;8.55;;;2.17;;
22778;SDS011;11556;51.194;3.800;2023-05-29T04:49:10;10.30;;;2.25;;
22778;SDS011;11556;51.194;3.800;2023-05-29T04:51:37;15.10;;;2.35;;
22778;SDS011;11556;51.194;3.800;2023-05-29T04:54:05;13.75;;;2.47;;
22778;SDS011;11556;51.194;3.800;2023-05-29T04:56:31;11.57;;;1.88;;
22778;SDS011;11556;51.194;3.800;2023-05-29T04:58:57;13.50;;;1.92;;
22778;SDS011;11556;51.194;3.800;2023-05-29T05:01:23;12.45;;;5.35;;
22778;SDS011;11556;51.194;3.800;2023-05-29T05:03:50;13.32;;;2.42;;
22778;SDS011;11556;51.194;3.800;2023-05-29T05:06:19;10.30;;;2.17;;
22778;SDS011;11556;51.194;3.800;2023-05-29T05:08:45;5.82;;;1.50;;
22778;SDS011;11556;51.194;3.800;2023-05-29T05:11:10;12.82;;;2.10;;
22778;SDS011;11556;51.194;3.800;2023-05-29T05:13:36;12.63;;;2.45;;
22778;SDS011;11556;51.194;3.800;2023-05-29T05:16:02;13.52;;;2.42;;
22778;SDS011;11556;51.194;3.800;2023-05-29T05:18:28;13.68;;;1.80;;
22778;SDS011;11556;51.194;3.800;2023-05-29T05:20:53;9.73;;;1.92;;
22778;SDS011;11556;51.194;3.800;2023-05-29T05:23:19;12.38;;;2.03;;
22778;SDS011;11556;51.194;3.800;2023-05-29T05:25:45;10.25;;;2.30;;
22778;SDS011;11556;51.194;3.800;2023-05-29T05:28:10;7.82;;;2.33;;
22778;SDS011;11556;51.194;3.800;2023-05-29T05:30:36;16.95;;;1.83;;
22778;SDS011;11556;51.194;3.800;2023-05-29T05:33:02;12.20;;;1.77;;
22778;SDS011;11556;51.194;3.800;2023-05-29T05:35:28;8.18;;;1.80;;
22778;SDS011;11556;51.194;3.800;2023-05-29T05:37:54;10.48;;;2.20;;
22778;SDS011;11556;51.194;3.800;2023-05-29T05:40:23;12.68;;;1.98;;
22778;SDS011;11556;51.194;3.800;2023-05-29T05:42:49;9.77;;;2.17;;
22778;SDS011;11556;51.194;3.800;2023-05-29T05:45:14;8.13;;;1.73;;
22778;SDS011;11556;51.194;3.800;2023-05-29T05:47:40;8.05;;;1.58;;
22778;SDS011;11556;51.194;3.800;2023-05-29T05:50:05;12.02;;;2.00;;
22778;SDS011;11556;51.194;3.800;2023-05-29T05:52:32;9.80;;;2.08;;
22778;SDS011;11556;51.194;3.800;2023-05-29T05:54:58;14.82;;;2.00;;
22778;SDS011;11556;51.194;3.800;2023-05-29T05:57:24;6.82;;;1.88;;
22778;SDS011;11556;51.194;3.800;2023-05-29T05:59:50;9.45;;;1.92;;
22778;SDS011;11556;51.194;3.800;2023-05-29T06:02:16;12.90;;;1.90;;
22778;SDS011;11556;51.194;3.800;2023-05-29T06:04:41;13.77;;;2.38;;
22778;SDS011;11556;51.194;3.800;2023-05-29T06:07:08;11.02;;;2.10;;
22778;SDS011;11556;51.194;3.800;2023-05-29T06:09:33;10.75;;;1.90;;
22778;SDS011;11556;51.194;3.800;2023-05-29T06:11:59;9.95;;;1.95;;
22778;SDS011;11556;51.194;3.800;2023-05-29T06:14:25;10.82;;;1.60;;
22778;SDS011;11556;51.194;3.800;2023-05-29T06:16:51;9.25;;;1.40;;
22778;SDS011;11556;51.194;3.800;2023-05-29T06:19:16;9.35;;;1.95;;
22778;SDS011;11556;51.194;3.800;2023-05-29T06:21:42;10.13;;;1.88;;
22778;SDS011;11556;51.194;3.800;2023-05-29T06:24:08;9.65;;;1.80;;
22778;SDS011;11556;51.194;3.800;2023-05-29T06:26:33;9.73;;;1.60;;
22778;SDS011;11556;51.194;3.800;2023-05-29T06:28:59;7.63;;;1.67;;
22778;SDS011;11556;51.194;3.800;2023-05-29T06:31:25;4.63;;;1.70;;
22778;SDS011;11556;51.194;3.800;2023-05-29T06:33:50;5.55;;;1.73;;
22778;SDS011;11556;51.194;3.800;2023-05-29T06:36:16;12.63;;;2.03;;
22778;SDS011;11556;51.194;3.800;2023-05-29T06:38:48;8.65;;;1.90;;
22778;SDS011;11556;51.194;3.800;2023-05-29T06:41:14;12.98;;;1.60;;
22778;SDS011;11556;51.194;3.800;2023-05-29T06:43:41;5.50;;;1.30;;
22778;SDS011;11556;51.194;3.800;2023-05-29T06:46:07;10.80;;;2.45;;
22778;SDS011;11556;51.194;3.800;2023-05-29T06:48:35;5.53;;;1.83;;
22778;SDS011;11556;51.194;3.800;2023-05-29T06:51:02;10.93;;;1.85;;
22778;SDS011;11556;51.194;3.800;2023-05-29T06:53:36;9.45;;;1.85;;
22778;SDS011;11556;51.194;3.800;2023-05-29T06:56:03;9.10;;;1.80;;
22778;SDS011;11556;51.194;3.800;2023-05-29T06:58:29;9.63;;;1.70;;
22778;SDS011;11556;51.194;3.800;2023-05-29T07:01:05;8.23;;;1.95;;
22778;SDS011;11556;51.194;3.800;2023-05-29T07:03:30;8.40;;;1.70;;
22778;SDS011;11556;51.194;3.800;2023-05-29T07:05:56;5.38;;;1.73;;
22778;SDS011;11556;51.194;3.800;2023-05-29T07:08:22;10.93;;;1.80;;
22778;SDS011;11556;51.194;3.800;2023-05-29T07:10:49;10.43;;;1.67;;
22778;SDS011;11556;51.194;3.800;2023-05-29T07:13:15;10.80;;;1.73;;
22778;SDS011;11556;51.194;3.800;2023-05-29T07:15:42;11.88;;;2.15;;
22778;SDS011;11556;51.194;3.800;2023-05-29T07:18:12;13.55;;;1.95;;
22778;SDS011;11556;51.194;3.800;2023-05-29T07:20:38;6.00;;;1.88;;
22778;SDS011;11556;51.194;3.800;2023-05-29T07:23:04;8.45;;;1.98;;
22778;SDS011;11556;51.194;3.800;2023-05-29T07:25:30;9.27;;;1.50;;
22778;SDS011;11556;51.194;3.800;2023-05-29T07:27:56;8.45;;;1.75;;
22778;SDS011;11556;51.194;3.800;2023-05-29T07:30:22;9.90;;;1.55;;
22778;SDS011;11556;51.194;3.800;2023-05-29T07:32:47;10.45;;;1.73;;
22778;SDS011;11556;51.194;3.800;2023-05-29T07:35:13;7.60;;;1.98;;
22778;SDS011;11556;51.194;3.800;2023-05-29T07:37:38;6.32;;;1.90;;
22778;SDS011;11556;51.194;3.800;2023-05-29T07:40:04;7.90;;;1.95;;
22778;SDS011;11556;51.194;3.800;2023-05-29T07:42:31;11.48;;;1.58;;
22778;SDS011;11556;51.194;3.800;2023-05-29T07:44:59;6.82;;;1.40;;
22778;SDS011;11556;51.194;3.800;2023-05-29T07:47:25;10.20;;;1.60;;
22778;SDS011;11556;51.194;3.800;2023-05-29T07:49:51;6.22;;;1.92;;
22778;SDS011;11556;51.194;3.800;2023-05-29T07:52:19;7.32;;;1.83;;
22778;SDS011;11556;51.194;3.800;2023-05-29T07:54:45;8.82;;;1.92;;
22778;SDS011;11556;51.194;3.800;2023-05-29T07:57:11;11.73;;;1.48;;
22778;SDS011;11556;51.194;3.800;2023-05-29T07:59:37;7.68;;;1.60;;
22778;SDS011;11556;51.194;3.800;2023-05-29T08:02:05;7.30;;;1.48;;
22778;SDS011;11556;51.194;3.800;2023-05-29T08:04:31;11.15;;;1.80;;
22778;SDS011;11556;51.194;3.800;2023-05-29T08:06:57;12.70;;;2.05;;
22778;SDS011;11556;51.194;3.800;2023-05-29T08:09:24;10.95;;;1.60;;
22778;SDS011;11556;51.194;3.800;2023-05-29T08:11:49;10.60;;;1.90;;
22778;SDS011;11556;51.194;3.800;2023-05-29T08:14:15;7.45;;;1.77;;
22778;SDS011;11556;51.194;3.800;2023-05-29T08:16:41;7.75;;;1.73;;
22778;SDS011;11556;51.194;3.800;2023-05-29T08:19:07;8.95;;;1.73;;
22778;SDS011;11556;51.194;3.800;2023-05-29T08:21:33;6.63;;;1.70;;
22778;SDS011;11556;51.194;3.800;2023-05-29T08:23:59;9.63;;;1.88;;
22778;SDS011;11556;51.194;3.800;2023-05-29T08:26:26;9.35;;;2.05;;
22778;SDS011;11556;51.194;3.800;2023-05-29T08:28:51;10.38;;;1.90;;
22778;SDS011;11556;51.194;3.800;2023-05-29T08:31:17;10.55;;;2.10;;
22778;SDS011;11556;51.194;3.800;2023-05-29T08:33:43;8.13;;;1.67;;
22778;SDS011;11556;51.194;3.800;2023-05-29T08:36:09;9.30;;;1.83;;
22778;SDS011;11556;51.194;3.800;2023-05-29T08:38:35;8.68;;;2.00;;
22778;SDS011;11556;51.194;3.800;2023-05-29T08:41:01;7.90;;;1.67;;
22778;SDS011;11556;51.194;3.800;2023-05-29T08:43:31;8.25;;;1.83;;
22778;SDS011;11556;51.194;3.800;2023-05-29T08:46:00;7.35;;;1.60;;
22778;SDS011;11556;51.194;3.800;2023-05-29T08:48:28;9.32;;;2.08;;
22778;SDS011;11556;51.194;3.800;2023-05-29T08:50:55;8.68;;;2.28;;
22778;SDS011;11556;51.194;3.800;2023-05-29T08:53:23;7.38;;;2.03;;
22778;SDS011;11556;51.194;3.800;2023-05-29T08:55:50;7.25;;;1.75;;
22778;SDS011;11556;51.194;3.800;2023-05-29T08:58:17;8.23;;;1.90;;
22778;SDS011;11556;51.194;3.800;2023-05-29T09:00:47;6.15;;;1.20;;
22778;SDS011;11556;51.194;3.800;2023-05-29T09:03:13;11.90;;;2.15;;
22778;SDS011;11556;51.194;3.800;2023-05-29T09:05:39;6.28;;;1.50;;
22778;SDS011;11556;51.194;3.800;2023-05-29T09:08:06;6.90;;;1.48;;
22778;SDS011;11556;51.194;3.800;2023-05-29T09:10:37;9.20;;;1.70;;
22778;SDS011;11556;51.194;3.800;2023-05-29T09:13:06;5.10;;;1.42;;
22778;SDS011;11556;51.194;3.800;2023-05-29T09:15:34;6.05;;;1.67;;
22778;SDS011;11556;51.194;3.800;2023-05-29T09:18:00;7.95;;;1.85;;
22778;SDS011;11556;51.194;3.800;2023-05-29T09:20:26;7.55;;;1.90;;
22778;SDS011;11556;51.194;3.800;2023-05-29T09:22:53;8.60;;;1.98;;
22778;SDS011;11556;51.194;3.800;2023-05-29T09:25:20;6.75;;;1.92;;
22778;SDS011;11556;51.194;3.800;2023-05-29T09:28:00;8.85;;;1.80;;
22778;SDS011;11556;51.194;3.800;2023-05-29T09:30:44;8.55;;;1.70;;
22778;SDS011;11556;51.194;3.800;2023-05-29T09:33:14;8.10;;;1.67;;
22778;SDS011;11556;51.194;3.800;2023-05-29T09:35:41;8.20;;;2.20;;
22778;SDS011;11556;51.194;3.800;2023-05-29T09:38:09;8.15;;;1.80;;
22778;SDS011;11556;51.194;3.800;2023-05-29T09:40:37;6.60;;;2.05;;
22778;SDS011;11556;51.194;3.800;2023-05-29T09:45:30;9.77;;;2.20;;
22778;SDS011;11556;51.194;3.800;2023-05-29T09:47:56;8.30;;;2.47;;
22778;SDS011;11556;51.194;3.800;2023-05-29T09:50:25;9.35;;;1.92;;
22778;SDS011;11556;51.194;3.800;2023-05-29T09:52:51;8.05;;;1.83;;
22778;SDS011;11556;51.194;3.800;2023-05-29T09:55:20;8.32;;;1.92;;
22778;SDS011;11556;51.194;3.800;2023-05-29T09:57:46;7.28;;;1.50;;
22778;SDS011;11556;51.194;3.800;2023-05-29T10:00:15;8.73;;;2.00;;
22778;SDS011;11556;51.194;3.800;2023-05-29T10:02:42;6.75;;;1.60;;
22778;SDS011;11556;51.194;3.800;2023-05-29T10:05:08;7.47;;;1.40;;
22778;SDS011;11556;51.194;3.800;2023-05-29T10:07:36;5.60;;;1.55;;
22778;SDS011;11556;51.194;3.800;2023-05-29T10:10:03;8.70;;;1.70;;
22778;SDS011;11556;51.194;3.800;2023-05-29T10:12:42;7.18;;;1.70;;
22778;SDS011;11556;51.194;3.800;2023-05-29T10:15:13;5.40;;;2.13;;
22778;SDS011;11556;51.194;3.800;2023-05-29T10:17:39;8.50;;;2.17;;
22778;SDS011;11556;51.194;3.800;2023-05-29T10:20:21;7.97;;;1.65;;
22778;SDS011;11556;51.194;3.800;2023-05-29T10:22:49;4.90;;;1.70;;
22778;SDS011;11556;51.194;3.800;2023-05-29T10:25:20;8.70;;;1.80;;
22778;SDS011;11556;51.194;3.800;2023-05-29T10:27:49;10.80;;;1.98;;
22778;SDS011;11556;51.194;3.800;2023-05-29T10:36:14;5.95;;;1.80;;
22778;SDS011;11556;51.194;3.800;2023-05-29T10:38:46;5.25;;;1.58;;
22778;SDS011;11556;51.194;3.800;2023-05-29T10:43:59;7.07;;;1.92;;
22778;SDS011;11556;51.194;3.800;2023-05-29T10:49:16;7.82;;;1.60;;
22778;SDS011;11556;51.194;3.800;2023-05-29T10:51:45;6.57;;;1.52;;
22778;SDS011;11556;51.194;3.800;2023-05-29T10:54:11;10.23;;;1.90;;
22778;SDS011;11556;51.194;3.800;2023-05-29T10:56:38;6.00;;;1.55;;
22778;SDS011;11556;51.194;3.800;2023-05-29T10:59:06;6.63;;;1.80;;
22778;SDS011;11556;51.194;3.800;2023-05-29T11:01:33;8.95;;;1.80;;
22778;SDS011;11556;51.194;3.800;2023-05-29T11:06:42;6.22;;;1.70;;
22778;SDS011;11556;51.194;3.800;2023-05-29T11:12:17;7.95;;;1.60;;
22778;SDS011;11556;51.194;3.800;2023-05-29T11:15:04;7.25;;;1.67;;
22778;SDS011;11556;51.194;3.800;2023-05-29T11:20:04;5.28;;;1.33;;
22778;SDS011;11556;51.194;3.800;2023-05-29T11:25:13;4.05;;;1.40;;
22778;SDS011;11556;51.194;3.800;2023-05-29T11:27:40;6.45;;;1.40;;
22778;SDS011;11556;51.194;3.800;2023-05-29T11:30:06;4.57;;;1.40;;
22778;SDS011;11556;51.194;3.800;2023-05-29T11:32:32;6.32;;;1.80;;
22778;SDS011;11556;51.194;3.800;2023-05-29T11:35:03;7.95;;;1.77;;
22778;SDS011;11556;51.194;3.800;2023-05-29T11:37:34;6.20;;;1.40;;
22778;SDS011;11556;51.194;3.800;2023-05-29T11:40:06;3.60;;;1.73;;
22778;SDS011;11556;51.194;3.800;2023-05-29T11:42:34;8.57;;;1.60;;
22778;SDS011;11556;51.194;3.800;2023-05-29T11:45:13;6.32;;;1.45;;
22778;SDS011;11556;51.194;3.800;2023-05-29T11:47:51;4.72;;;1.67;;
22778;SDS011;11556;51.194;3.800;2023-05-29T11:50:24;5.50;;;1.70;;
22778;SDS011;11556;51.194;3.800;2023-05-29T11:52:55;6.20;;;1.60;;
22778;SDS011;11556;51.194;3.800;2023-05-29T11:55:21;3.35;;;1.67;;
22778;SDS011;11556;51.194;3.800;2023-05-29T11:57:48;10.10;;;1.95;;
22778;SDS011;11556;51.194;3.800;2023-05-29T12:00:15;7.78;;;1.80;;
22778;SDS011;11556;51.194;3.800;2023-05-29T12:02:42;6.38;;;1.60;;
22778;SDS011;11556;51.194;3.800;2023-05-29T12:05:08;5.25;;;1.50;;
22778;SDS011;11556;51.194;3.800;2023-05-29T12:07:37;5.93;;;1.65;;
22778;SDS011;11556;51.194;3.800;2023-05-29T12:10:13;6.10;;;1.75;;
22778;SDS011;11556;51.194;3.800;2023-05-29T12:15:25;7.38;;;1.73;;
22778;SDS011;11556;51.194;3.800;2023-05-29T12:17:51;7.97;;;1.63;;
22778;SDS011;11556;51.194;3.800;2023-05-29T12:20:18;6.20;;;1.55;;
22778;SDS011;11556;51.194;3.800;2023-05-29T12:22:46;4.90;;;1.70;;
22778;SDS011;11556;51.194;3.800;2023-05-29T12:25:13;5.05;;;1.83;;
22778;SDS011;11556;51.194;3.800;2023-05-29T12:27:43;7.78;;;1.70;;
22778;SDS011;11556;51.194;3.800;2023-05-29T12:30:19;4.90;;;1.77;;
22778;SDS011;11556;51.194;3.800;2023-05-29T12:32:49;5.43;;;1.67;;
22778;SDS011;11556;51.194;3.800;2023-05-29T12:35:22;4.00;;;1.50;;
22778;SDS011;11556;51.194;3.800;2023-05-29T12:38:00;10.23;;;1.80;;
22778;SDS011;11556;51.194;3.800;2023-05-29T12:40:27;6.50;;;1.70;;
22778;SDS011;11556;51.194;3.800;2023-05-29T12:42:55;9.27;;;1.90;;
22778;SDS011;11556;51.194;3.800;2023-05-29T12:45:25;5.63;;;1.80;;
22778;SDS011;11556;51.194;3.800;2023-05-29T12:47:59;3.63;;;1.40;;
22778;SDS011;11556;51.194;3.800;2023-05-29T12:50:35;7.50;;;1.48;;
22778;SDS011;11556;51.194;3.800;2023-05-29T12:53:10;7.57;;;1.50;;
22778;SDS011;11556;51.194;3.800;2023-05-29T12:55:38;3.90;;;1.30;;
22778;SDS011;11556;51.194;3.800;2023-05-29T12:58:05;6.57;;;1.35;;
22778;SDS011;11556;51.194;3.800;2023-05-29T13:00:31;8.18;;;1.63;;
22778;SDS011;11556;51.194;3.800;2023-05-29T13:02:58;8.00;;;1.55;;
22778;SDS011;11556;51.194;3.800;2023-05-29T13:05:24;4.57;;;1.40;;
22778;SDS011;11556;51.194;3.800;2023-05-29T13:07:50;4.88;;;1.50;;
22778;SDS011;11556;51.194;3.800;2023-05-29T13:10:17;8.25;;;1.88;;
22778;SDS011;11556;51.194;3.800;2023-05-29T13:12:43;5.38;;;1.45;;
22778;SDS011;11556;51.194;3.800;2023-05-29T13:15:10;7.20;;;1.23;;
22778;SDS011;11556;51.194;3.800;2023-05-29T13:17:37;8.77;;;1.70;;
22778;SDS011;11556;51.194;3.800;2023-05-29T13:20:07;4.25;;;1.27;;
22778;SDS011;11556;51.194;3.800;2023-05-29T13:22:37;10.45;;;1.65;;
22778;SDS011;11556;51.194;3.800;2023-05-29T13:25:03;5.97;;;1.65;;
22778;SDS011;11556;51.194;3.800;2023-05-29T13:27:31;7.22;;;1.88;;
22778;SDS011;11556;51.194;3.800;2023-05-29T13:30:04;8.38;;;1.70;;
22778;SDS011;11556;51.194;3.800;2023-05-29T13:32:31;5.93;;;1.50;;
22778;SDS011;11556;51.194;3.800;2023-05-29T13:34:57;3.78;;;1.30;;
22778;SDS011;11556;51.194;3.800;2023-05-29T13:37:22;5.80;;;1.58;;
22778;SDS011;11556;51.194;3.800;2023-05-29T13:39:51;5.13;;;1.35;;
22778;SDS011;11556;51.194;3.800;2023-05-29T13:42:17;4.88;;;1.33;;
22778;SDS011;11556;51.194;3.800;2023-05-29T13:44:46;8.52;;;2.95;;
22778;SDS011;11556;51.194;3.800;2023-05-29T13:47:13;6.47;;;1.73;;
22778;SDS011;11556;51.194;3.800;2023-05-29T13:49:38;5.47;;;1.60;;
22778;SDS011;11556;51.194;3.800;2023-05-29T13:52:04;8.05;;;2.10;;
22778;SDS011;11556;51.194;3.800;2023-05-29T13:54:30;7.28;;;1.60;;
22778;SDS011;11556;51.194;3.800;2023-05-29T13:57:00;6.00;;;1.45;;
22778;SDS011;11556;51.194;3.800;2023-05-29T13:59:30;3.58;;;1.40;;
22778;SDS011;11556;51.194;3.800;2023-05-29T14:01:56;7.97;;;1.83;;
22778;SDS011;11556;51.194;3.800;2023-05-29T14:04:21;8.23;;;1.85;;
22778;SDS011;11556;51.194;3.800;2023-05-29T14:06:47;7.25;;;1.83;;
22778;SDS011;11556;51.194;3.800;2023-05-29T14:09:13;7.90;;;1.70;;
22778;SDS011;11556;51.194;3.800;2023-05-29T14:11:39;5.57;;;1.60;;
22778;SDS011;11556;51.194;3.800;2023-05-29T14:14:05;5.97;;;2.05;;
22778;SDS011;11556;51.194;3.800;2023-05-29T14:16:31;7.80;;;1.92;;
22778;SDS011;11556;51.194;3.800;2023-05-29T14:18:58;5.70;;;1.63;;
22778;SDS011;11556;51.194;3.800;2023-05-29T14:21:24;6.75;;;1.90;;
22778;SDS011;11556;51.194;3.800;2023-05-29T14:23:49;6.55;;;1.90;;
22778;SDS011;11556;51.194;3.800;2023-05-29T14:26:15;4.53;;;1.58;;
22778;SDS011;11556;51.194;3.800;2023-05-29T14:28:41;7.65;;;2.10;;
22778;SDS011;11556;51.194;3.800;2023-05-29T14:31:07;4.78;;;1.90;;
22778;SDS011;11556;51.194;3.800;2023-05-29T14:33:32;7.32;;;1.95;;
22778;SDS011;11556;51.194;3.800;2023-05-29T14:35:58;6.70;;;1.73;;
22778;SDS011;11556;51.194;3.800;2023-05-29T14:38:24;4.80;;;1.75;;
22778;SDS011;11556;51.194;3.800;2023-05-29T14:40:50;6.47;;;1.80;;
22778;SDS011;11556;51.194;3.800;2023-05-29T14:43:16;5.72;;;2.00;;
22778;SDS011;11556;51.194;3.800;2023-05-29T14:45:42;6.72;;;1.90;;
22778;SDS011;11556;51.194;3.800;2023-05-29T14:48:08;9.90;;;2.05;;
22778;SDS011;11556;51.194;3.800;2023-05-29T14:50:34;7.72;;;1.92;;
22778;SDS011;11556;51.194;3.800;2023-05-29T14:53:00;8.52;;;2.00;;
22778;SDS011;11556;51.194;3.800;2023-05-29T14:55:26;7.38;;;1.88;;
22778;SDS011;11556;51.194;3.800;2023-05-29T14:57:51;8.60;;;2.15;;
22778;SDS011;11556;51.194;3.800;2023-05-29T15:00:17;9.07;;;2.08;;
22778;SDS011;11556;51.194;3.800;2023-05-29T15:02:43;12.10;;;1.83;;
22778;SDS011;11556;51.194;3.800;2023-05-29T15:05:08;11.32;;;2.38;;
22778;SDS011;11556;51.194;3.800;2023-05-29T15:07:34;5.82;;;1.88;;
22778;SDS011;11556;51.194;3.800;2023-05-29T15:10:00;10.80;;;2.33;;
22778;SDS011;11556;51.194;3.800;2023-05-29T15:12:26;10.20;;;2.00;;
22778;SDS011;11556;51.194;3.800;2023-05-29T15:14:51;9.82;;;2.13;;
22778;SDS011;11556;51.194;3.800;2023-05-29T15:17:18;14.57;;;2.25;;
22778;SDS011;11556;51.194;3.800;2023-05-29T15:19:44;8.02;;;2.22;;
22778;SDS011;11556;51.194;3.800;2023-05-29T15:22:09;9.15;;;2.50;;